createdAt,value
2022-08-02T00:00:14.900Z,19.60
2022-08-02T00:02:46.090Z,19.60
2022-08-02T00:05:13.518Z,19.60
2022-08-02T00:07:41.338Z,19.60
2022-08-02T00:10:10.670Z,19.60
2022-08-02T00:12:38.808Z,19.60
2022-08-02T00:15:07.880Z,19.50
2022-08-02T00:17:34.659Z,19.40
2022-08-02T00:20:02.250Z,19.40
2022-08-02T00:22:29.030Z,19.40
2022-08-02T00:24:55.835Z,19.40
2022-08-02T00:27:22.553Z,19.30
2022-08-02T00:29:52.517Z,19.40
2022-08-02T00:32:20.348Z,19.40
2022-08-02T00:34:47.123Z,19.40
2022-08-02T00:37:14.444Z,19.30
2022-08-02T00:39:42.966Z,19.20
2022-08-02T00:42:10.629Z,19.20
2022-08-02T00:44:37.732Z,19.20
2022-08-02T00:47:04.694Z,19.20
2022-08-02T00:49:33.053Z,19.20
2022-08-02T00:52:00.825Z,19.10
2022-08-02T00:54:28.049Z,19.10
2022-08-02T00:56:54.823Z,19.10
2022-08-02T00:59:21.832Z,19.10
2022-08-02T01:01:57.578Z,19.20
2022-08-02T01:04:30.709Z,19.20
2022-08-02T01:07:00.213Z,19.20
2022-08-02T01:09:27.320Z,19.20
2022-08-02T01:11:54.092Z,19.10
2022-08-02T01:14:22.998Z,19.10
2022-08-02T01:17:16.367Z,19.00
2022-08-02T01:20:01.452Z,18.90
2022-08-02T01:23:00.513Z,18.90
2022-08-02T01:25:53.045Z,18.90
2022-08-02T01:28:31.690Z,18.90
2022-08-02T01:31:15.667Z,19.00
2022-08-02T01:34:01.325Z,19.00
2022-08-02T01:36:32.637Z,19.00
2022-08-02T01:39:00.929Z,19.00
2022-08-02T01:41:29.625Z,19.00
2022-08-02T01:43:59.385Z,19.00
2022-08-02T01:46:29.122Z,19.10
2022-08-02T01:48:59.532Z,19.10
2022-08-02T01:51:46.890Z,19.10
2022-08-02T01:54:17.418Z,19.10
2022-08-02T01:56:45.371Z,19.00
2022-08-02T01:59:16.746Z,19.00
2022-08-02T02:01:45.982Z,18.90
2022-08-02T02:04:17.461Z,18.90
2022-08-02T02:06:45.450Z,18.90
2022-08-02T02:09:15.394Z,18.90
2022-08-02T02:12:10.090Z,18.90
2022-08-02T02:14:33.338Z,18.80
2022-08-02T02:17:01.156Z,18.80
2022-08-02T02:19:29.297Z,18.80
2022-08-02T02:21:57.181Z,18.80
2022-08-02T02:24:24.359Z,18.90
2022-08-02T02:26:52.475Z,18.80
2022-08-02T02:29:24.361Z,18.80
2022-08-02T02:31:53.881Z,18.80
2022-08-02T02:34:32.002Z,18.90
2022-08-02T02:37:03.686Z,18.80
2022-08-02T02:39:32.451Z,18.70
2022-08-02T02:42:03.595Z,18.60
2022-08-02T02:44:32.085Z,18.60
2022-08-02T02:47:00.790Z,18.60
2022-08-02T02:49:28.745Z,18.60
2022-08-02T02:51:57.369Z,18.60
2022-08-02T02:54:33.516Z,18.70
2022-08-02T02:57:02.782Z,18.70
2022-08-02T02:59:30.303Z,18.70
2022-08-02T03:01:58.792Z,18.70
2022-08-02T03:04:55.307Z,18.70
2022-08-02T03:07:15.305Z,18.60
2022-08-02T03:09:42.078Z,18.60
2022-08-02T03:12:09.960Z,18.60
2022-08-02T03:14:44.382Z,18.50
2022-08-02T03:17:11.186Z,18.50
2022-08-02T03:19:37.929Z,18.40
2022-08-02T03:22:04.744Z,18.40
2022-08-02T03:24:31.990Z,18.30
2022-08-02T03:26:58.701Z,18.30
2022-08-02T03:29:25.494Z,18.20
2022-08-02T03:31:52.735Z,18.20
2022-08-02T03:34:20.209Z,18.10
2022-08-02T03:36:50.465Z,18.00
2022-08-02T03:39:19.581Z,18.00
2022-08-02T03:41:48.405Z,18.00
2022-08-02T03:44:16.600Z,18.00
2022-08-02T03:46:44.197Z,18.00
2022-08-02T03:49:11.185Z,18.00
2022-08-02T03:51:38.137Z,18.00
2022-08-02T03:54:05.207Z,18.00
2022-08-02T03:56:32.559Z,18.10
2022-08-02T03:59:07.113Z,18.10
2022-08-02T04:01:33.872Z,18.10
2022-08-02T04:04:00.677Z,18.10
2022-08-02T04:06:28.451Z,18.20
2022-08-02T04:08:55.508Z,18.10
2022-08-02T04:11:31.157Z,18.10
2022-08-02T04:14:04.541Z,18.20
2022-08-02T04:17:02.186Z,18.20
2022-08-02T04:19:36.600Z,18.20
2022-08-02T04:22:05.659Z,18.20
2022-08-02T04:24:38.150Z,18.20
2022-08-02T04:27:51.031Z,18.10
2022-08-02T04:29:54.660Z,18.10
2022-08-02T04:32:22.525Z,18.10
2022-08-02T04:35:11.677Z,18.20
2022-08-02T04:37:38.260Z,18.20
2022-08-02T04:40:25.089Z,18.20
2022-08-02T04:42:51.797Z,18.30
2022-08-02T04:45:20.599Z,18.30
2022-08-02T04:48:02.343Z,18.40
2022-08-02T04:50:31.287Z,18.30
2022-08-02T04:52:58.095Z,18.30
2022-08-02T04:55:28.689Z,18.20
2022-08-02T04:57:57.368Z,18.20
2022-08-02T05:00:25.602Z,18.10
2022-08-02T05:02:55.771Z,18.20
2022-08-02T05:05:23.042Z,18.20
2022-08-02T05:07:49.818Z,18.30
2022-08-02T05:10:16.583Z,18.30
2022-08-02T05:12:43.462Z,18.40
2022-08-02T05:15:12.835Z,18.60
2022-08-02T05:17:40.099Z,18.60
2022-08-02T05:20:16.330Z,18.70
2022-08-02T05:22:43.522Z,18.80
2022-08-02T05:25:10.783Z,18.90
2022-08-02T05:27:37.861Z,18.90
2022-08-02T05:30:05.650Z,19.00
2022-08-02T05:32:32.509Z,19.10
2022-08-02T05:35:01.912Z,19.20
2022-08-02T05:37:32.252Z,19.40
2022-08-02T05:40:01.162Z,19.60
2022-08-02T05:42:31.474Z,19.70
2022-08-02T05:44:58.473Z,19.90
2022-08-02T05:47:25.942Z,20.10
2022-08-02T05:49:52.954Z,20.40
2022-08-02T05:52:24.458Z,20.70
2022-08-02T05:55:10.085Z,21.00
2022-08-02T05:57:45.426Z,21.50
2022-08-02T06:00:14.358Z,22.00
2022-08-02T06:02:50.351Z,22.20
2022-08-02T06:05:20.570Z,22.50
2022-08-02T06:07:48.738Z,22.70
2022-08-02T06:10:20.185Z,22.90
2022-08-02T06:12:51.339Z,23.20
2022-08-02T06:15:19.600Z,23.60
2022-08-02T06:17:47.948Z,23.90
2022-08-02T06:20:16.010Z,24.10
2022-08-02T06:22:45.074Z,24.40
2022-08-02T06:25:48.056Z,24.70
2022-08-02T06:28:03.070Z,25.10
2022-08-02T06:30:31.420Z,25.50
2022-08-02T06:33:00.635Z,25.90
2022-08-02T06:35:43.946Z,25.90
2022-08-02T06:38:17.123Z,26.10
2022-08-02T06:40:46.139Z,26.40
2022-08-02T06:43:26.880Z,26.50
2022-08-02T06:45:53.645Z,26.60
2022-08-02T06:48:20.482Z,26.80
2022-08-02T06:50:47.327Z,26.90
2022-08-02T06:53:14.284Z,27.10
2022-08-02T06:55:43.592Z,27.30
2022-08-02T06:58:11.832Z,27.60
2022-08-02T07:00:38.888Z,27.40
2022-08-02T07:03:06.039Z,27.30
2022-08-02T07:05:32.831Z,27.20
2022-08-02T07:07:59.695Z,27.30
2022-08-02T07:10:26.831Z,27.40
2022-08-02T07:12:54.826Z,27.60
2022-08-02T07:15:23.135Z,27.70
2022-08-02T07:17:49.978Z,28.00
2022-08-02T07:20:16.771Z,28.30
2022-08-02T07:22:43.491Z,28.40
2022-08-02T07:25:10.794Z,28.40
2022-08-02T07:27:37.625Z,28.30
2022-08-02T07:30:05.656Z,28.40
2022-08-02T07:32:32.748Z,28.60
2022-08-02T07:35:03.398Z,28.80
2022-08-02T07:37:57.945Z,29.00
2022-08-02T07:40:22.868Z,29.20
2022-08-02T07:42:52.320Z,29.40
2022-08-02T07:45:20.498Z,29.50
2022-08-02T07:47:47.595Z,29.60
2022-08-02T07:50:16.992Z,29.60
2022-08-02T07:52:44.831Z,29.70
2022-08-02T07:55:12.719Z,30.00
2022-08-02T07:57:45.851Z,30.10
2022-08-02T08:00:16.016Z,30.20
2022-08-02T08:02:42.909Z,30.20
2022-08-02T08:05:10.174Z,30.00
2022-08-02T08:07:36.919Z,29.90
2022-08-02T08:10:05.355Z,29.70
2022-08-02T08:12:32.181Z,30.00
2022-08-02T08:14:59.013Z,30.40
2022-08-02T08:17:26.206Z,30.60
2022-08-02T08:19:53.212Z,30.80
2022-08-02T08:22:20.901Z,31.00
2022-08-02T08:24:48.395Z,31.00
2022-08-02T08:27:15.815Z,30.60
2022-08-02T08:29:43.382Z,30.40
2022-08-02T08:32:14.423Z,30.80
2022-08-02T08:34:43.616Z,30.90
2022-08-02T08:37:17.178Z,31.20
2022-08-02T08:39:57.460Z,31.60
2022-08-02T08:42:26.595Z,31.70
2022-08-02T08:44:56.540Z,31.40
2022-08-02T08:47:24.704Z,31.00
2022-08-02T08:49:54.917Z,30.80
2022-08-02T08:52:26.598Z,29.90
2022-08-02T08:54:54.556Z,30.50
2022-08-02T08:57:21.639Z,31.00
2022-08-02T08:59:48.379Z,30.60
2022-08-02T09:02:19.523Z,31.10
2022-08-02T09:04:54.590Z,31.30
2022-08-02T09:07:22.654Z,31.80
2022-08-02T09:09:49.501Z,31.90
2022-08-02T09:12:17.748Z,31.80
2022-08-02T09:14:49.988Z,32.10
2022-08-02T09:17:18.316Z,32.30
2022-08-02T09:19:45.990Z,32.50
2022-08-02T09:22:15.292Z,32.90
2022-08-02T09:24:50.334Z,33.30
2022-08-02T09:27:21.988Z,33.70
2022-08-02T09:30:12.188Z,33.60
2022-08-02T09:32:49.624Z,33.50
2022-08-02T09:36:07.050Z,33.50
2022-08-02T09:38:24.639Z,33.70
2022-08-02T09:40:53.015Z,33.50
2022-08-02T09:43:20.891Z,33.70
2022-08-02T09:45:47.728Z,33.80
2022-08-02T09:48:14.565Z,33.70
2022-08-02T09:50:42.839Z,34.00
2022-08-02T09:53:14.035Z,33.80
2022-08-02T09:55:42.117Z,33.50
2022-08-02T09:58:21.505Z,33.10
2022-08-02T10:00:57.047Z,32.80
2022-08-02T10:03:25.315Z,32.30
2022-08-02T10:06:03.111Z,31.70
2022-08-02T10:08:32.949Z,31.20
2022-08-02T10:11:01.007Z,30.90
2022-08-02T10:13:29.598Z,30.40
2022-08-02T10:15:57.152Z,30.00
2022-08-02T10:18:38.201Z,29.70
2022-08-02T10:21:14.907Z,29.30
2022-08-02T10:23:44.878Z,29.20
2022-08-02T10:26:16.358Z,29.00
2022-08-02T10:28:47.162Z,29.20
2022-08-02T10:31:22.316Z,29.30
2022-08-02T10:33:52.860Z,29.50
2022-08-02T10:36:21.134Z,29.70
2022-08-02T10:38:48.137Z,29.30
2022-08-02T10:41:14.908Z,30.00
2022-08-02T10:43:49.366Z,30.70
2022-08-02T10:46:35.646Z,31.20
2022-08-02T10:49:37.837Z,31.30
2022-08-02T10:52:01.274Z,30.50
2022-08-02T10:54:37.237Z,30.00
2022-08-02T10:57:18.119Z,29.40
2022-08-02T10:59:45.617Z,29.70
2022-08-02T11:02:13.604Z,29.60
2022-08-02T11:04:43.601Z,29.20
2022-08-02T11:07:19.069Z,29.40
2022-08-02T11:09:48.000Z,29.50
2022-08-02T11:12:17.654Z,29.50
2022-08-02T11:15:00.541Z,29.50
2022-08-02T11:17:48.928Z,29.50
2022-08-02T11:20:17.554Z,29.30
2022-08-02T11:22:46.587Z,29.10
2022-08-02T11:25:22.138Z,29.00
2022-08-02T11:28:00.219Z,29.00
2022-08-02T11:30:27.628Z,28.70
2022-08-02T11:32:59.573Z,28.60
2022-08-02T11:35:39.909Z,28.50
2022-08-02T11:38:20.014Z,28.50
2022-08-02T11:40:48.566Z,28.50
2022-08-02T11:43:30.703Z,28.40
2022-08-02T11:45:57.681Z,28.50
2022-08-02T11:48:38.895Z,28.70
2022-08-02T11:51:11.235Z,28.90
2022-08-02T11:53:45.968Z,28.90
2022-08-02T11:56:14.292Z,28.80
2022-08-02T11:59:08.482Z,28.40
2022-08-02T12:01:45.618Z,28.00
2022-08-02T12:04:16.994Z,27.80
2022-08-02T12:06:44.162Z,27.60
2022-08-02T12:09:18.258Z,27.80
2022-08-02T12:11:50.033Z,28.00
2022-08-02T12:14:16.992Z,28.30
2022-08-02T12:17:02.474Z,28.50
2022-08-02T12:19:29.541Z,28.50
2022-08-02T12:22:19.190Z,28.60
2022-08-02T12:24:52.535Z,28.50
2022-08-02T12:27:30.512Z,28.50
2022-08-02T12:30:02.903Z,28.60
2022-08-02T12:32:30.169Z,28.70
2022-08-02T12:35:07.935Z,28.70
2022-08-02T12:37:36.057Z,28.90
2022-08-02T12:40:20.871Z,29.00
2022-08-02T12:42:58.474Z,29.00
2022-08-02T12:45:38.300Z,29.00
2022-08-02T12:48:08.805Z,29.00
2022-08-02T12:50:39.467Z,29.10
2022-08-02T12:53:15.022Z,29.30
2022-08-02T12:56:01.071Z,29.30
2022-08-02T12:58:30.115Z,29.30
2022-08-02T13:01:00.655Z,29.20
2022-08-02T13:04:10.773Z,29.30
2022-08-02T13:06:41.037Z,28.90
2022-08-02T13:09:12.316Z,28.50
2022-08-02T13:11:42.931Z,28.40
2022-08-02T13:14:10.990Z,28.70
2022-08-02T13:16:37.768Z,28.80
2022-08-02T13:19:04.667Z,28.80
2022-08-02T13:21:40.894Z,28.90
2022-08-02T13:24:38.065Z,29.00
2022-08-02T13:27:08.612Z,29.10
2022-08-02T13:29:37.189Z,29.00
2022-08-02T13:32:04.222Z,29.10
2022-08-02T13:34:30.990Z,29.30
2022-08-02T13:36:58.665Z,29.40
2022-08-02T13:39:25.426Z,29.50
2022-08-02T13:41:52.803Z,29.60
2022-08-02T13:44:19.550Z,29.50
2022-08-02T13:46:46.443Z,29.50
2022-08-02T13:49:18.772Z,29.30
2022-08-02T13:51:47.592Z,29.30
2022-08-02T13:54:15.459Z,29.10
2022-08-02T13:56:42.382Z,28.90
2022-08-02T13:59:54.109Z,28.90
2022-08-02T14:01:56.745Z,29.10
2022-08-02T14:04:24.717Z,29.00
2022-08-02T14:06:52.060Z,29.10
2022-08-02T14:09:19.281Z,29.20
2022-08-02T14:11:46.538Z,29.30
2022-08-02T14:14:16.629Z,29.40
2022-08-02T14:16:45.184Z,29.50
2022-08-02T14:19:16.802Z,29.40
2022-08-02T14:21:46.688Z,29.30
2022-08-02T14:24:15.290Z,29.50
2022-08-02T14:26:42.506Z,29.60
2022-08-02T14:29:09.355Z,29.60
2022-08-02T14:31:40.198Z,29.60
2022-08-02T14:34:10.339Z,29.50
2022-08-02T14:36:38.712Z,29.50
2022-08-02T14:39:05.577Z,29.60
2022-08-02T14:41:34.036Z,29.70
2022-08-02T14:44:20.794Z,29.70
2022-08-02T14:46:47.628Z,29.80
2022-08-02T14:49:25.987Z,29.80
2022-08-02T14:51:54.820Z,29.80
2022-08-02T14:54:27.846Z,29.90
2022-08-02T14:56:59.491Z,30.00
2022-08-02T14:59:26.936Z,30.10
2022-08-02T15:01:54.397Z,30.10
2022-08-02T15:04:21.237Z,30.00
2022-08-02T15:06:47.952Z,30.10
2022-08-02T15:09:14.735Z,30.10
2022-08-02T15:11:47.405Z,30.10
2022-08-02T15:14:20.429Z,30.10
2022-08-02T15:16:57.572Z,30.10
2022-08-02T15:19:55.966Z,30.10
2022-08-02T15:22:16.167Z,30.10
2022-08-02T15:24:44.603Z,30.10
2022-08-02T15:27:13.951Z,30.00
2022-08-02T15:29:41.807Z,29.70
2022-08-02T15:32:08.690Z,29.70
2022-08-02T15:34:35.600Z,29.60
2022-08-02T15:37:02.788Z,29.40
2022-08-02T15:39:29.588Z,29.40
2022-08-02T15:41:56.729Z,29.30
2022-08-02T15:44:24.838Z,29.40
2022-08-02T15:46:51.824Z,29.40
2022-08-02T15:49:20.709Z,29.50
2022-08-02T15:51:47.564Z,29.50
2022-08-02T15:54:14.374Z,29.50
2022-08-02T15:56:41.222Z,29.50
2022-08-02T15:59:08.050Z,29.40
2022-08-02T16:01:37.958Z,29.30
2022-08-02T16:04:06.986Z,29.20
2022-08-02T16:06:35.001Z,29.20
2022-08-02T16:09:02.298Z,29.10
2022-08-02T16:11:29.163Z,29.10
2022-08-02T16:13:56.716Z,29.20
2022-08-02T16:16:28.501Z,29.20
2022-08-02T16:18:55.512Z,29.10
2022-08-02T16:21:25.745Z,29.00
2022-08-02T16:24:01.073Z,28.90
2022-08-02T16:26:31.452Z,28.80
2022-08-02T16:28:59.617Z,28.70
2022-08-02T16:31:26.439Z,28.70
2022-08-02T16:33:56.172Z,28.70
2022-08-02T16:36:25.726Z,28.70
2022-08-02T16:38:53.640Z,28.70
2022-08-02T16:41:20.913Z,28.70
2022-08-02T16:43:47.738Z,28.60
2022-08-02T16:46:14.664Z,28.60
2022-08-02T16:48:42.041Z,28.60
2022-08-02T16:51:18.764Z,28.50
2022-08-02T16:53:59.748Z,28.40
2022-08-02T16:56:28.510Z,28.40
2022-08-02T17:02:03.301Z,28.40
2022-08-02T17:04:29.451Z,28.40
2022-08-02T17:06:56.430Z,28.40
2022-08-02T17:10:03.851Z,28.40
2022-08-02T17:12:15.793Z,28.30
2022-08-02T17:14:55.077Z,28.30
2022-08-02T17:17:33.548Z,28.20
2022-08-02T17:20:00.853Z,28.20
2022-08-02T17:22:27.622Z,28.20
2022-08-02T17:24:54.523Z,28.10
2022-08-02T17:27:22.380Z,28.10
2022-08-02T17:29:49.195Z,28.10
2022-08-02T17:32:16.233Z,28.10
2022-08-02T17:34:48.926Z,28.10
2022-08-02T17:37:26.459Z,28.00
2022-08-02T17:39:53.424Z,28.00
2022-08-02T17:42:24.746Z,28.00
2022-08-02T17:45:06.786Z,28.00
2022-08-02T17:47:43.228Z,28.00
2022-08-02T17:50:30.191Z,28.00
2022-08-02T17:52:57.158Z,27.90
2022-08-02T17:55:24.223Z,28.00
2022-08-02T17:57:57.215Z,27.90
2022-08-02T18:00:32.055Z,27.90
2022-08-02T18:03:02.049Z,27.90
2022-08-02T18:05:40.359Z,27.90
2022-08-02T18:11:07.630Z,27.80
2022-08-02T18:13:35.843Z,27.80
2022-08-02T18:16:03.304Z,27.70
2022-08-02T18:18:30.929Z,27.70
2022-08-02T18:21:15.702Z,27.60
2022-08-02T18:23:44.116Z,27.60
2022-08-02T18:26:15.773Z,27.50
2022-08-02T18:28:43.245Z,27.40
2022-08-02T18:31:23.202Z,27.40
2022-08-02T18:33:58.089Z,27.30
2022-08-02T18:36:47.373Z,27.20
2022-08-02T18:39:17.889Z,27.20
2022-08-02T18:41:45.143Z,27.10
2022-08-02T18:44:15.860Z,27.00
2022-08-02T18:46:43.716Z,27.00
2022-08-02T18:49:15.166Z,26.90
2022-08-02T18:51:43.318Z,26.80
2022-08-02T18:54:10.126Z,26.80
2022-08-02T18:56:38.907Z,26.70
2022-08-02T18:59:09.153Z,26.60
2022-08-02T19:01:48.641Z,26.60
2022-08-02T19:04:27.225Z,26.50
2022-08-02T19:06:56.094Z,26.40
2022-08-02T19:09:23.987Z,26.30
2022-08-02T19:11:50.972Z,26.20
2022-08-02T19:14:27.165Z,26.10
2022-08-02T19:16:56.318Z,26.00
2022-08-02T19:19:23.497Z,25.90
2022-08-02T19:22:26.806Z,25.80
2022-08-02T19:24:44.341Z,25.80
2022-08-02T19:27:15.597Z,25.80
2022-08-02T19:29:48.888Z,25.70
2022-08-02T19:32:42.482Z,25.60
2022-08-02T19:35:28.301Z,25.50
2022-08-02T19:37:54.386Z,25.20
2022-08-02T19:40:29.054Z,25.10
2022-08-02T19:44:24.048Z,24.80
2022-08-02T19:45:50.312Z,24.60
2022-08-02T19:48:24.482Z,24.50
2022-08-02T19:51:01.574Z,24.50
2022-08-02T19:53:47.428Z,24.40
2022-08-02T19:56:20.439Z,24.30
2022-08-02T19:59:13.110Z,24.20
2022-08-02T20:01:46.345Z,24.20
2022-08-02T20:04:22.888Z,24.20
2022-08-02T20:06:51.075Z,24.20
2022-08-02T20:09:21.196Z,24.20
2022-08-02T20:11:54.407Z,24.30
2022-08-02T20:14:26.892Z,24.30
2022-08-02T20:16:55.964Z,24.30
2022-08-02T20:19:24.258Z,24.20
2022-08-02T20:21:56.863Z,24.20
2022-08-02T20:24:27.549Z,24.20
2022-08-02T20:26:55.554Z,24.20
2022-08-02T20:29:43.082Z,24.20
2022-08-02T20:32:12.216Z,24.20
2022-08-02T20:34:39.026Z,24.20
2022-08-02T20:37:56.298Z,24.00
2022-08-02T20:39:52.707Z,24.00
2022-08-02T20:42:23.797Z,23.90
2022-08-02T20:44:55.427Z,23.70
2022-08-02T20:47:28.472Z,23.70
2022-08-02T20:50:31.203Z,23.70
2022-08-02T20:53:00.423Z,23.70
2022-08-02T20:55:27.957Z,23.60
2022-08-02T20:58:00.986Z,23.40
2022-08-02T21:00:29.705Z,23.30
2022-08-02T21:02:56.431Z,23.30
2022-08-02T21:05:26.682Z,23.30
2022-08-02T21:08:14.010Z,23.30
2022-08-02T21:10:43.721Z,23.30
2022-08-02T21:13:18.770Z,23.20
2022-08-02T21:15:45.990Z,23.10
2022-08-02T21:18:21.219Z,23.00
2022-08-02T21:21:00.733Z,23.00
2022-08-02T21:23:28.708Z,23.00
2022-08-02T21:25:58.014Z,22.90
2022-08-02T21:28:43.275Z,22.90
2022-08-02T21:31:11.277Z,22.90
2022-08-02T21:33:47.063Z,22.80
2022-08-02T21:36:31.595Z,22.70
2022-08-02T21:39:05.820Z,22.70
2022-08-02T21:41:39.301Z,22.70
2022-08-02T21:44:12.973Z,22.50
2022-08-02T21:46:40.824Z,22.40
2022-08-02T21:49:11.386Z,22.30
2022-08-02T21:51:39.520Z,22.20
2022-08-02T21:54:18.147Z,22.20
2022-08-02T21:56:52.148Z,22.10
2022-08-02T21:59:26.099Z,22.10
2022-08-02T22:01:57.650Z,22.00
2022-08-02T22:04:25.775Z,21.90
2022-08-02T22:06:52.989Z,21.90
2022-08-02T22:09:44.451Z,21.90
2022-08-02T22:12:10.348Z,22.00
2022-08-02T22:14:43.788Z,22.10
2022-08-02T22:17:16.716Z,22.00
2022-08-02T22:19:53.860Z,21.90
2022-08-02T22:22:28.483Z,21.80
2022-08-02T22:24:56.851Z,21.70
2022-08-02T22:28:35.256Z,21.70
2022-08-02T22:30:11.597Z,21.70
2022-08-02T22:32:56.985Z,21.70
2022-08-02T22:35:23.858Z,21.60
2022-08-02T22:38:15.131Z,21.70
2022-08-02T22:40:37.760Z,21.70
2022-08-02T22:43:05.932Z,21.60
2022-08-02T22:45:36.814Z,21.50
2022-08-02T22:48:05.106Z,21.40
2022-08-02T22:50:32.762Z,21.40
2022-08-02T22:53:00.120Z,21.20
2022-08-02T22:55:32.929Z,21.20
2022-08-02T22:58:08.031Z,21.10
2022-08-02T22:58:43.327Z,27.80
2022-08-02T22:58:50.530Z,28.40
2022-08-02T23:00:34.811Z,21.10
2022-08-02T23:03:01.652Z,21.10
2022-08-02T23:05:30.408Z,21.20
2022-08-02T23:07:57.298Z,21.20
2022-08-02T23:10:24.317Z,21.10
2022-08-02T23:12:51.135Z,21.10
2022-08-02T23:15:17.908Z,21.00
2022-08-02T23:18:03.438Z,20.90
2022-08-02T23:20:30.494Z,20.90
2022-08-02T23:22:57.233Z,20.90
2022-08-02T23:25:24.018Z,20.90
2022-08-02T23:27:51.452Z,20.90
2022-08-02T23:30:19.408Z,20.80
2022-08-02T23:32:46.752Z,20.70
2022-08-02T23:35:16.966Z,20.70
2022-08-02T23:37:59.081Z,20.70
2022-08-02T23:40:39.686Z,20.80
2022-08-02T23:43:13.804Z,20.70
2022-08-02T23:45:43.389Z,20.70
2022-08-02T23:48:10.184Z,20.70
2022-08-02T23:50:37.033Z,20.60
2022-08-02T23:53:03.958Z,20.60
2022-08-02T23:55:30.789Z,20.50
2022-08-02T23:57:57.548Z,20.50
